Weather at Ithaca Tompkins Regional Airport

Public forecast

Using degrees Fahrenheit for public forecast. Weather courtesy of forecast.io.

Current aviation weather report (METAR) for Ithaca Tompkins Regional Airport

2024/05/28 03:56 (retrieved 25 minutes ago)

KITH 280356Z AUTO 29006KT 10SM SCT025 OVC033 18/14 A2970 RMK AO2 SLP051 T01780139

Closest aviation forecast (TAF) to Ithaca Tompkins Regional Airport

Forecast is more than 6 hours old.

Closest forecast is Kingston Norman Rogers Airport, 104.3 nm (193.2 km) N.

2024/05/27 20:00 (retrieved 8 hours ago)

TAF CYGK 271940Z 2720/2803 15015G25KT 3SM -SHRA BR OVC020 TEMPO 2720/2722 6SM -SHRA BR SCT020 OVC060 FM272200 20012G22KT P6SM SCT006 SCT012 OVC030 TEMPO 2722/2803 5SM -SHRA BKN012 OVC030 PROB30 2722/2803 BKN006 RMK NXT FCST BY 281200Z